Time;durP1;ratioP1;P1;durP2;ratioP2;P2;SDS_P1;SDS_P2;PMS_P1;PMS_P2;Temp;Humidity;BMP_temperature;BMP_pressure;BME280_temperature;BME280_humidity;BME280_pressure;Samples;Min_cycle;Max_cycle;Signal;HPM_P1;HPM_P2
2022/04/10 00:01:57;;;;;;;9.40;5.33;;;2.90;99.90;;;1.80;80.38;97450.09;5091324;28;20915;-77
2022/04/10 00:04:23;;;;;;;11.80;4.97;;;2.90;99.90;;;1.76;80.63;97441.03;5091683;28;20402;-77
2022/04/10 00:06:48;;;;;;;9.20;4.55;;;3.00;99.90;;;1.64;80.89;97453.03;5091632;28;20444;-76
2022/04/10 00:09:14;;;;;;;7.68;4.35;;;2.90;99.90;;;1.69;80.26;97437.59;5091514;28;20394;-77
2022/04/10 00:11:42;;;;;;;11.75;5.40;;;2.90;99.90;;;1.59;80.66;97444.94;5091294;28;20390;-77
2022/04/10 00:14:07;;;;;;;7.95;5.10;;;2.90;99.90;;;1.64;80.50;97453.84;5091572;28;20409;-77
2022/04/10 00:16:33;;;;;;;10.82;5.20;;;2.90;99.90;;;1.66;80.14;97440.56;5091458;28;20398;-77
2022/04/10 00:19:04;;;;;;;8.88;4.65;;;2.90;99.90;;;1.74;78.66;97448.25;5091255;28;20429;-77
2022/04/10 00:21:30;;;;;;;11.68;4.60;;;3.00;99.90;;;1.77;79.08;97453.88;5090856;28;20441;-77
2022/04/10 00:23:56;;;;;;;10.97;5.27;;;3.00;99.90;;;1.79;79.43;97451.91;5091426;28;20398;-77
2022/04/10 00:26:22;;;;;;;11.40;4.93;;;3.00;99.90;;;1.87;78.56;97456.97;5091359;28;20405;-77
2022/04/10 00:28:51;;;;;;;7.20;4.80;;;3.10;99.90;;;1.76;79.28;97451.47;5091328;28;20402;-77
2022/04/10 00:31:17;;;;;;;11.63;5.30;;;3.00;99.90;;;1.68;79.74;97455.03;5090882;28;20483;-77
2022/04/10 00:33:44;;;;;;;10.90;4.90;;;2.90;99.90;;;1.70;79.83;97450.44;5091156;28;20774;-77
2022/04/10 00:36:10;;;;;;;12.40;5.07;;;2.90;99.90;;;1.65;79.49;97452.84;5091183;28;20402;-77
2022/04/10 00:38:36;;;;;;;11.82;4.95;;;2.90;99.90;;;1.78;78.94;97439.84;5091116;28;20401;-77
2022/04/10 00:41:02;;;;;;;12.20;5.18;;;3.00;99.90;;;1.82;78.25;97442.84;5090546;28;20864;-77
2022/04/10 00:43:32;;;;;;;11.60;4.88;;;3.00;99.90;;;1.73;78.77;97450.03;5091023;28;20394;-77
2022/04/10 00:46:00;;;;;;;9.80;4.75;;;3.00;99.90;;;1.79;77.90;97445.88;5091190;28;20402;-77
2022/04/10 00:48:26;;;;;;;11.53;4.63;;;3.00;99.90;;;1.78;79.36;97452.91;5090920;28;20813;-77
2022/04/10 00:53:39;;;;;;;10.45;4.97;;;2.90;99.90;;;1.59;79.93;97448.38;5090910;28;20409;-77
2022/04/10 00:56:05;;;;;;;10.80;5.00;;;2.80;99.90;;;1.48;80.01;97460.16;5090836;28;20485;-77
2022/04/10 00:58:32;;;;;;;10.70;5.33;;;2.80;99.90;;;1.51;80.78;97448.50;5090846;28;20401;-77
2022/04/10 01:00:59;;;;;;;11.60;5.50;;;2.70;99.90;;;1.41;80.53;97454.09;5090161;28;20775;-77
2022/04/10 01:03:25;;;;;;;9.13;4.70;;;2.60;99.90;;;1.45;80.77;97457.13;5090666;28;20984;-77
2022/04/10 01:05:51;;;;;;;9.27;4.63;;;2.60;99.90;;;1.21;81.22;97458.34;5090811;28;20410;-77
2022/04/10 01:08:18;;;;;;;8.52;4.53;;;2.50;99.90;;;1.16;81.40;97453.72;5090749;28;20398;-77
2022/04/10 01:10:44;;;;;;;9.40;4.70;;;2.50;99.90;;;1.05;81.81;97456.84;5090085;28;20770;-77
2022/04/10 01:13:10;;;;;;;8.20;4.72;;;2.30;99.90;;;1.10;81.27;97453.69;5090613;28;20402;-77
2022/04/10 01:15:37;;;;;;;10.48;5.05;;;2.30;99.90;;;0.98;81.55;97458.59;5090664;28;20481;-77
2022/04/10 01:18:06;;;;;;;13.05;5.15;;;2.30;99.90;;;0.97;82.28;97466.63;5090517;28;20406;-77
2022/04/10 01:20:32;;;;;;;12.88;5.18;;;2.20;99.90;;;1.03;82.31;97468.47;5089665;28;20410;-77
2022/04/10 01:23:01;;;;;;;12.38;4.70;;;2.30;99.90;;;1.02;82.02;97466.84;5089206;28;20391;-77
2022/04/10 01:25:28;;;;;;;9.70;4.53;;;2.30;99.90;;;1.09;82.19;97472.91;5090199;28;20732;-77
2022/04/10 01:27:53;;;;;;;9.48;4.43;;;2.30;99.90;;;1.28;81.13;97472.25;5090414;28;20402;-77
2022/04/10 01:30:19;;;;;;;11.18;5.13;;;2.50;99.90;;;1.49;80.65;97471.41;5089894;28;20493;-77
2022/04/10 01:32:45;;;;;;;7.18;4.70;;;2.60;99.90;;;1.66;79.89;97464.06;5090335;28;20476;-77
2022/04/10 01:35:11;;;;;;;10.27;5.35;;;2.80;99.90;;;1.69;80.84;97474.13;5090377;28;20402;-77
2022/04/10 01:37:38;;;;;;;12.32;6.40;;;2.80;99.90;;;1.65;81.60;97481.53;5090341;28;20397;-77
2022/04/10 01:40:07;;;;;;;9.23;5.18;;;2.80;99.90;;;1.79;81.03;97480.59;5089931;28;20390;-77
2022/04/10 01:42:33;;;;;;;9.38;5.40;;;2.90;99.90;;;1.74;81.23;97482.16;5090143;28;20408;-77
2022/04/10 01:44:59;;;;;;;11.90;5.35;;;3.00;99.90;;;1.64;80.83;97482.53;5090380;28;20405;-77
2022/04/10 01:47:25;;;;;;;11.48;5.40;;;2.90;99.90;;;1.57;82.11;97480.88;5090225;28;20397;-77
2022/04/10 01:49:51;;;;;;;9.90;5.32;;;2.80;99.90;;;1.63;80.59;97483.53;5090085;28;20409;-77
2022/04/10 01:52:17;;;;;;;13.13;5.85;;;2.80;99.90;;;1.84;80.59;97482.63;5089813;28;20421;-77
2022/04/10 01:54:42;;;;;;;11.23;5.00;;;2.90;99.90;;;1.74;80.84;97475.13;5090244;28;20424;-77
2022/04/10 01:57:10;;;;;;;7.85;5.10;;;2.90;99.90;;;1.81;80.74;97475.16;5090195;28;20408;-77
2022/04/10 01:59:36;;;;;;;10.13;4.70;;;3.00;99.90;;;1.83;80.10;97476.59;5089983;28;20397;-77
2022/04/10 02:02:02;;;;;;;8.75;5.07;;;3.00;99.90;;;1.95;79.67;97476.88;5089635;28;20978;-77
2022/04/10 02:04:28;;;;;;;10.02;5.07;;;3.10;99.90;;;1.80;79.16;97479.63;5090113;28;20398;-77
2022/04/10 02:06:54;;;;;;;11.00;5.63;;;3.00;99.90;;;1.65;80.10;97478.94;5090102;28;20873;-77
2022/04/10 02:09:20;;;;;;;12.03;5.73;;;2.90;99.90;;;1.62;80.71;97478.50;5089895;28;20493;-77
2022/04/10 02:11:46;;;;;;;8.98;4.82;;;2.80;99.90;;;1.36;80.96;97485.13;5089645;28;20409;-77
2022/04/10 02:14:13;;;;;;;13.27;5.70;;;2.70;99.90;;;1.36;81.30;97476.50;5090064;28;20458;-77
2022/04/10 02:16:39;;;;;;;8.93;5.33;;;2.60;99.90;;;1.37;81.74;97480.72;5090014;28;20405;-77
2022/04/10 02:19:05;;;;;;;10.95;5.78;;;2.60;99.90;;;1.24;82.15;97478.03;5089693;28;20464;-77
2022/04/10 02:21:31;;;;;;;8.18;5.03;;;2.50;99.90;;;1.14;82.47;97475.75;5089483;28;20453;-77
2022/04/10 02:23:57;;;;;;;12.00;6.18;;;2.40;99.90;;;1.12;83.22;97477.75;5090133;28;20426;-77
2022/04/10 02:26:23;;;;;;;10.48;5.65;;;2.30;99.90;;;1.02;83.28;97478.09;5090044;28;20918;-77
2022/04/10 02:28:49;;;;;;;12.35;5.95;;;2.30;99.90;;;1.08;83.22;97477.31;5089947;28;20394;-77
2022/04/10 02:31:16;;;;;;;12.88;6.18;;;2.30;99.90;;;1.13;82.29;97485.38;5089231;28;20434;-77
2022/04/10 02:33:42;;;;;;;8.65;5.63;;;2.40;99.90;;;1.05;82.48;97479.50;5089928;28;20471;-77
2022/04/10 02:36:08;;;;;;;11.23;6.18;;;2.30;99.90;;;0.91;83.75;97485.59;5090885;28;20398;-77
2022/04/10 02:38:34;;;;;;;10.30;5.70;;;2.20;99.90;;;0.91;83.26;97482.97;5093473;28;20527;-77
2022/04/10 02:41:00;;;;;;;14.40;6.40;;;2.20;99.90;;;0.89;83.38;97488.41;5092720;28;20424;-77
2022/04/10 02:43:26;;;;;;;11.95;6.45;;;2.10;99.90;;;0.88;83.76;97496.41;5093477;28;20493;-77
2022/04/10 02:45:52;;;;;;;11.73;6.15;;;2.10;99.90;;;0.86;83.62;97500.97;5093371;28;20405;-77
2022/04/10 02:48:19;;;;;;;11.67;6.20;;;2.10;99.90;;;0.88;84.15;97496.41;5093388;28;20398;-77
2022/04/10 02:50:45;;;;;;;12.63;6.47;;;2.10;99.90;;;0.84;84.12;97495.16;5092638;28;20485;-77
2022/04/10 02:53:11;;;;;;;11.27;6.80;;;2.10;99.90;;;0.86;84.77;97498.38;5093195;28;20402;-77
2022/04/10 02:55:37;;;;;;;12.67;7.03;;;2.10;99.90;;;0.85;84.07;97496.75;5093050;28;20501;-77
2022/04/10 02:58:03;;;;;;;10.15;6.50;;;2.10;99.90;;;0.84;84.04;97493.34;5093049;28;20768;-77
2022/04/10 03:00:28;;;;;;;11.03;6.57;;;2.10;99.90;;;0.85;83.62;97501.97;5090956;28;20488;-77
2022/04/10 03:02:54;;;;;;;11.40;6.78;;;2.10;99.90;;;0.88;83.00;97494.59;5092975;28;20398;-77
2022/04/10 03:05:22;;;;;;;14.10;7.18;;;2.10;99.90;;;0.91;83.00;97503.81;5092896;28;20489;-77
2022/04/10 03:07:48;;;;;;;13.83;7.10;;;2.20;99.90;;;0.81;82.91;97506.75;5092866;28;20518;-77
2022/04/10 03:10:14;;;;;;;10.77;6.78;;;2.10;99.90;;;0.90;82.77;97502.25;5092188;28;20440;-77
2022/04/10 03:12:39;;;;;;;10.77;6.78;;;2.10;99.90;;;0.67;83.65;97503.22;5092740;28;20441;-77
2022/04/10 03:15:07;;;;;;;11.00;6.45;;;2.00;99.90;;;0.55;84.09;97501.28;5092702;28;20398;-77
2022/04/10 03:17:33;;;;;;;10.10;7.30;;;1.90;99.90;;;0.49;84.87;97502.03;5092631;28;20433;-77
2022/04/10 03:19:59;;;;;;;11.95;7.53;;;1.80;99.90;;;0.58;85.34;97503.53;5092397;28;20438;-77
2022/04/10 03:22:26;;;;;;;13.90;6.90;;;1.80;99.90;;;0.47;84.96;97506.59;5092115;28;20457;-77
2022/04/10 03:24:52;;;;;;;13.10;8.80;;;1.70;99.90;;;0.49;85.75;97507.22;5092512;28;20948;-77
2022/04/10 03:27:18;;;;;;;11.20;7.80;;;1.60;99.90;;;0.50;85.55;97507.06;5092569;28;20540;-77
2022/04/10 03:29:44;;;;;;;12.87;8.50;;;1.70;99.90;;;0.35;85.60;97503.69;5092227;28;20442;-77
2022/04/10 03:32:10;;;;;;;10.43;7.55;;;1.60;99.90;;;0.34;86.13;97507.28;5091939;28;20398;-77
2022/04/10 03:34:35;;;;;;;12.43;8.83;;;1.60;99.90;;;0.31;86.53;97508.44;5092242;28;20393;-77
2022/04/10 03:37:02;;;;;;;14.43;8.55;;;1.60;99.90;;;0.31;86.17;97510.22;5092288;28;20497;-77
2022/04/10 03:39:29;;;;;;;11.75;7.35;;;1.50;99.90;;;0.37;85.45;97506.91;5073831;28;20414;-77
2022/04/10 03:41:55;;;;;;;9.52;7.28;;;1.60;99.90;;;0.36;84.81;97503.50;5091637;28;20417;-77
2022/04/10 03:44:20;;;;;;;14.65;9.95;;;1.60;99.90;;;0.20;85.66;97510.72;5092124;28;20886;-77
2022/04/10 03:46:46;;;;;;;14.23;8.65;;;1.50;99.90;;;0.22;85.45;97513.94;5091678;28;20408;-77
2022/04/10 03:49:12;;;;;;;15.55;8.20;;;1.50;99.90;;;0.34;84.97;97523.69;5091763;28;20440;-77
2022/04/10 03:51:38;;;;;;;11.50;8.17;;;1.50;99.90;;;0.46;84.03;97520.59;5091682;28;20422;-77
2022/04/10 03:54:04;;;;;;;13.88;8.32;;;1.70;99.90;;;0.44;83.81;97523.41;5091886;28;20400;-77
2022/04/10 03:56:31;;;;;;;13.30;7.93;;;1.70;99.90;;;0.43;83.18;97528.81;5091947;28;20398;-77
2022/04/10 03:58:57;;;;;;;14.77;8.65;;;1.70;99.90;;;0.30;84.20;97534.69;5073494;28;20408;-77
2022/04/10 04:01:23;;;;;;;12.63;7.88;;;1.60;99.90;;;0.24;84.58;97537.97;5091468;28;20778;-77
2022/04/10 04:03:49;;;;;;;10.80;7.70;;;1.50;99.90;;;0.20;84.64;97534.94;5091740;28;20493;-77
2022/04/10 04:06:15;;;;;;;10.70;7.90;;;1.50;99.90;;;0.28;84.82;97542.66;5091701;28;20398;-76
2022/04/10 04:08:41;;;;;;;12.65;8.73;;;1.50;99.90;;;0.20;84.77;97541.94;5091672;28;20397;-77
2022/04/10 04:11:07;;;;;;;13.10;8.57;;;1.50;99.90;;;0.11;85.17;97549.06;5091039;28;20820;-77
2022/04/10 04:13:37;;;;;;;15.05;9.30;;;1.40;99.90;;;0.16;85.86;97551.09;5091449;28;20405;-77
2022/04/10 04:16:03;;;;;;;15.77;9.40;;;1.40;99.90;;;0.33;85.38;97555.94;5091640;28;20882;-77
2022/04/10 04:18:30;;;;;;;13.85;8.00;;;1.50;99.90;;;0.42;83.85;97553.22;5091475;28;20399;-77
2022/04/10 04:20:56;;;;;;;11.43;7.93;;;1.70;99.90;;;0.62;83.06;97557.66;5090890;22;20527;-71
2022/04/10 04:23:21;;;;;;;11.63;8.17;;;1.80;99.90;;;0.62;82.19;97557.66;5070760;28;20561;-70
2022/04/10 04:25:47;;;;;;;13.18;8.30;;;1.90;99.90;;;0.75;82.02;97562.22;5071024;28;20811;-72
2022/04/10 04:28:13;;;;;;;12.03;7.97;;;2.00;99.90;;;0.81;81.68;97571.91;5071010;28;20404;-71
2022/04/10 04:30:40;;;;;;;13.50;8.18;;;2.10;99.90;;;0.89;82.21;97569.19;5070440;28;20400;-71
2022/04/10 04:33:06;;;;;;;11.23;7.43;;;2.10;99.90;;;1.05;80.97;97576.72;5070885;28;20412;-71
2022/04/10 04:35:33;;;;;;;12.83;8.07;;;2.30;99.90;;;1.08;81.32;97576.38;5070872;28;20996;-71
2022/04/10 04:38:00;;;;;;;11.77;7.57;;;2.30;99.90;;;1.06;80.81;97577.53;5070932;28;20403;-72
2022/04/10 04:40:26;;;;;;;10.90;7.68;;;2.30;99.90;;;1.11;81.18;97578.63;5070172;28;20402;-72
2022/04/10 04:42:52;;;;;;;13.30;8.13;;;2.40;99.90;;;1.14;80.84;97586.06;5069525;28;20431;-72
2022/04/10 04:45:18;;;;;;;13.60;7.40;;;2.40;99.90;;;1.33;79.98;97584.63;5070810;28;20483;-71
2022/04/10 04:47:45;;;;;;;11.48;8.00;;;2.50;99.90;;;1.31;80.79;97589.22;5052853;28;20438;-72
2022/04/10 04:50:11;;;;;;;19.00;8.30;;;2.50;99.90;;;1.31;80.06;97581.41;5070092;28;20473;-72
2022/04/10 04:52:38;;;;;;;15.88;8.18;;;2.50;99.90;;;1.33;80.51;97576.81;5070726;28;20396;-72
2022/04/10 04:55:06;;;;;;;11.77;7.60;;;2.50;99.90;;;1.34;80.60;97583.63;5070695;28;20753;-72
2022/04/10 04:57:32;;;;;;;11.73;8.00;;;2.50;99.90;;;1.38;81.33;97590.09;5070580;28;20439;-72
2022/04/10 04:59:58;;;;;;;12.10;8.07;;;2.60;99.90;;;1.38;80.34;97591.88;5069769;28;20495;-72
2022/04/10 05:02:24;;;;;;;13.50;6.97;;;2.60;99.90;;;1.41;79.90;97594.94;5070069;28;20435;-72
2022/04/10 05:04:52;;;;;;;10.63;7.40;;;2.70;99.90;;;1.61;79.09;97589.88;5070717;28;20404;-73
2022/04/10 05:07:18;;;;;;;10.35;7.10;;;2.70;99.90;;;1.56;79.09;97592.25;5069678;28;20932;-71
2022/04/10 05:09:44;;;;;;;10.60;6.78;;;2.80;99.90;;;1.58;78.62;97608.50;5083301;28;20401;-71
2022/04/10 05:12:10;;;;;;;11.07;7.20;;;2.80;99.90;;;1.66;78.84;97603.13;5081840;28;20627;-73
2022/04/10 05:14:36;;;;;;;14.25;7.68;;;2.90;99.90;;;1.70;78.06;97611.41;5085776;28;20411;-72
2022/04/10 05:17:02;;;;;;;11.27;7.18;;;2.90;99.90;;;1.75;78.41;97609.84;5065502;28;20471;-72
2022/04/10 05:19:32;;;;;;;9.77;6.63;;;2.90;99.90;;;1.76;77.87;97624.50;5045129;28;20804;-71
2022/04/10 05:21:59;;;;;;;11.40;6.97;;;3.00;99.90;;;1.85;77.39;97625.19;5045546;28;20425;-72
2022/04/10 05:24:25;;;;;;;10.05;7.20;;;3.00;99.90;;;1.90;77.58;97625.41;5062825;28;20424;-72
2022/04/10 05:26:51;;;;;;;10.95;6.53;;;3.10;99.90;;;1.87;76.76;97634.44;5070195;28;20917;-72
2022/04/10 05:29:19;;;;;;;14.23;6.93;;;3.10;99.90;;;1.95;77.17;97634.28;5070254;28;20476;-72
2022/04/10 05:31:45;;;;;;;12.85;7.25;;;3.10;99.90;;;2.00;76.90;97640.75;5070127;28;20483;-71
2022/04/10 05:34:11;;;;;;;10.98;6.95;;;3.20;99.90;;;1.87;77.00;97638.84;5070495;28;20487;-72
2022/04/10 05:36:37;;;;;;;8.98;6.60;;;3.10;99.90;;;1.90;76.42;97643.69;5070258;28;20491;-72
2022/04/10 05:39:04;;;;;;;10.23;6.35;;;3.20;99.90;;;1.96;76.92;97648.13;5080836;28;20407;-72
2022/04/10 05:41:30;;;;;;;12.90;7.13;;;3.10;99.90;;;1.95;78.14;97643.94;5089939;28;20417;-72
2022/04/10 05:43:56;;;;;;;11.23;6.40;;;3.10;99.90;;;2.04;76.49;97644.56;5087252;28;20405;-72
2022/04/10 05:46:22;;;;;;;10.10;6.55;;;3.10;99.90;;;2.01;76.25;97653.59;5058772;28;20411;-72
2022/04/10 05:48:48;;;;;;;11.15;7.13;;;3.20;99.90;;;1.92;76.58;97655.56;5060045;28;20408;-72
2022/04/10 05:51:14;;;;;;;12.60;7.22;;;3.20;99.90;;;1.94;77.24;97671.03;5059690;28;20481;-72
2022/04/10 05:53:39;;;;;;;8.65;7.03;;;3.10;99.90;;;1.96;76.32;97676.84;5058720;28;20389;-72
2022/04/10 05:56:07;;;;;;;11.45;6.43;;;3.20;99.90;;;1.93;76.13;97674.63;5064134;28;20776;-72
2022/04/10 05:58:33;;;;;;;12.32;6.55;;;3.10;99.90;;;2.01;76.22;97661.44;5068460;28;20455;-72
2022/04/10 06:00:59;;;;;;;9.18;5.90;;;3.10;99.90;;;2.06;75.85;97668.69;5077788;28;20498;-71
2022/04/10 06:03:24;;;;;;;13.07;6.05;;;3.20;99.90;;;2.26;75.14;97673.03;5077712;28;20446;-72
2022/04/10 06:05:50;;;;;;;12.15;6.28;;;3.40;99.90;;;2.49;74.49;97669.38;5078702;28;20425;-72
2022/04/10 06:08:16;;;;;;;10.30;6.00;;;3.50;99.90;;;2.64;73.47;97670.03;5090160;28;20459;-72
2022/04/10 06:10:42;;;;;;;10.13;6.20;;;3.70;99.70;;;2.81;74.60;97675.75;5070093;28;20506;-72
2022/04/10 06:13:10;;;;;;;9.82;5.88;;;3.90;99.90;;;2.88;72.32;97676.59;5072671;28;20400;-71
2022/04/10 06:15:36;;;;;;;8.25;6.07;;;4.00;98.20;;;3.05;73.32;97668.22;5063210;28;20404;-73
2022/04/10 06:18:02;;;;;;;8.35;5.18;;;4.10;98.70;;;3.27;70.34;97675.94;5064258;28;20400;-71
2022/04/10 06:20:28;;;;;;;9.98;5.60;;;4.40;96.90;;;3.27;71.39;97675.94;5061329;28;20409;-71
2022/04/10 06:22:54;;;;;;;10.23;5.47;;;4.40;97.40;;;3.39;70.34;97680.38;5063499;28;20972;-72
2022/04/10 06:25:20;;;;;;;11.93;5.47;;;4.50;96.70;;;3.40;69.65;97683.78;5069482;28;20494;-72
2022/04/10 06:27:46;;;;;;;10.10;5.93;;;4.50;95.40;;;3.43;71.42;97691.25;5066627;28;20419;-71
2022/04/10 06:30:14;;;;;;;11.88;5.65;;;4.50;97.40;;;3.50;71.26;97697.31;5077135;28;20400;-73
2022/04/10 06:32:39;;;;;;;11.95;5.45;;;4.60;97.50;;;3.74;70.17;97686.28;5073418;28;20483;-75
2022/04/10 06:35:08;;;;;;;9.15;5.45;;;4.70;96.60;;;3.67;69.37;97682.06;5073425;28;20941;-73
2022/04/10 06:37:35;;;;;;;9.10;5.50;;;4.80;95.20;;;3.75;69.19;97687.91;5071991;28;20399;-74
2022/04/10 06:40:01;;;;;;;8.18;4.90;;;4.80;95.30;;;3.80;68.97;97689.91;5071301;28;20449;-73
2022/04/10 06:42:27;;;;;;;8.63;5.40;;;4.90;95.40;;;3.98;68.64;97689.31;5066633;28;20503;-71
2022/04/10 06:44:53;;;;;;;14.73;4.78;;;5.00;95.20;;;4.10;67.84;97687.69;5068046;28;20411;-72
2022/04/10 06:47:20;;;;;;;11.97;5.33;;;5.20;94.10;;;4.10;69.17;97698.97;5077307;28;20554;-71
2022/04/10 06:49:46;;;;;;;9.50;5.55;;;5.10;95.10;;;4.31;70.44;97690.09;5083451;28;20405;-70
2022/04/10 06:52:12;;;;;;;7.65;4.72;;;5.30;95.90;;;4.23;67.24;97698.16;5091233;28;20749;-70
2022/04/10 06:54:38;;;;;;;9.57;4.88;;;5.40;93.50;;;4.25;67.41;97693.53;5092205;28;20438;-72
2022/04/10 06:57:04;;;;;;;9.00;5.27;;;5.30;93.30;;;4.22;67.34;97696.53;5065991;28;20766;-70
2022/04/10 06:59:30;;;;;;;9.88;5.10;;;5.30;93.20;;;4.28;66.07;97701.00;5053642;28;20404;-72
2022/04/10 07:01:56;;;;;;;7.77;5.13;;;5.40;92.30;;;4.25;66.88;97696.97;5071275;28;21052;-70
2022/04/10 07:04:23;;;;;;;9.93;4.80;;;5.40;92.70;;;4.48;66.65;97699.16;5058087;28;20402;-71
2022/04/10 07:06:50;;;;;;;8.57;5.20;;;5.40;93.00;;;4.40;66.56;97703.78;5076540;28;20897;-71
2022/04/10 07:09:16;;;;;;;7.30;4.47;;;5.40;92.70;;;4.64;65.71;97700.53;5086566;28;20957;-70
2022/04/10 07:11:42;;;;;;;12.30;5.20;;;5.60;92.30;;;4.71;66.74;97705.75;5080588;28;20391;-71
2022/04/10 07:14:08;;;;;;;9.67;5.67;;;5.80;93.20;;;4.85;66.90;97710.75;5085933;28;20414;-71
2022/04/10 07:16:34;;;;;;;10.73;5.45;;;5.90;93.60;;;5.24;65.08;97706.38;5087390;28;20425;-71
2022/04/10 07:19:00;;;;;;;9.27;4.72;;;6.10;92.20;;;5.14;64.12;97714.69;5092650;28;20394;-71
2022/04/10 07:24:12;;;;;;;9.45;4.90;;;6.30;91.60;;;5.39;64.12;97712.97;5092585;28;20389;-71
2022/04/10 07:26:39;;;;;;;8.30;5.10;;;6.40;90.80;;;5.59;64.44;97720.72;5092105;28;20410;-72
2022/04/10 07:29:05;;;;;;;11.43;5.03;;;6.50;91.20;;;5.68;64.09;97713.41;5083001;28;20408;-71
2022/04/10 07:31:31;;;;;;;10.98;5.22;;;6.60;90.70;;;5.86;63.02;97717.94;5091731;28;20394;-71
2022/04/10 07:33:57;;;;;;;10.73;5.50;;;6.80;89.90;;;6.02;64.13;97710.34;5074299;28;20983;-71
2022/04/10 07:36:23;;;;;;;11.93;4.65;;;6.90;90.80;;;6.21;62.23;97722.56;5092365;28;20903;-71
2022/04/10 07:38:50;;;;;;;10.80;5.20;;;7.10;88.50;;;5.95;60.92;97717.47;5074153;28;20398;-71
2022/04/10 07:41:16;;;;;;;8.75;4.30;;;7.00;85.30;;;5.90;60.26;97719.16;5091670;28;20446;-70
2022/04/10 07:43:42;;;;;;;11.55;5.10;;;6.90;83.90;;;5.81;62.16;97724.63;5085331;28;20431;-70
2022/04/10 07:48:52;;;;;;;13.38;5.38;;;6.90;85.70;;;6.04;60.43;97718.84;5062522;28;20441;-71
2022/04/10 07:51:18;;;;;;;9.65;4.75;;;7.00;84.70;;;6.24;58.94;97723.94;5061386;28;20389;-71
2022/04/10 07:53:44;;;;;;;9.68;4.80;;;7.20;83.00;;;6.10;59.83;97725.84;5060445;28;20748;-71
2022/04/10 07:56:12;;;;;;;10.70;5.50;;;7.10;82.70;;;6.14;61.85;97732.31;5061812;28;20482;-71
2022/04/10 07:58:37;;;;;;;10.80;5.60;;;7.10;85.90;;;6.37;59.81;97734.34;5064366;28;20406;-71
2022/04/10 08:01:03;;;;;;;10.75;4.50;;;7.20;84.00;;;6.22;57.78;97734.69;5069285;28;20916;-71
2022/04/10 08:03:32;;;;;;;9.88;5.07;;;7.40;79.30;;;6.48;57.74;97738.09;5063476;28;20419;-71
2022/04/10 08:05:58;;;;;;;11.57;5.00;;;7.40;80.40;;;6.70;60.14;97739.28;5064247;28;20412;-70
2022/04/10 08:08:24;;;;;;;8.77;5.03;;;7.50;83.70;;;6.83;58.73;97739.19;5063277;28;20500;-71
2022/04/10 08:10:51;;;;;;;11.13;5.63;;;7.70;81.70;;;7.26;58.92;97743.56;5063127;28;20767;-71
2022/04/10 08:13:18;;;;;;;10.68;5.20;;;8.00;82.10;;;7.74;58.38;97751.47;5060571;28;20473;-71
2022/04/10 08:15:44;;;;;;;8.73;4.55;;;8.40;83.60;;;7.33;55.26;97744.28;5068787;28;20492;-70
2022/04/10 08:18:11;;;;;;;10.13;4.70;;;8.30;75.70;;;7.54;54.29;97748.28;5070248;28;20496;-71
2022/04/10 08:20:37;;;;;;;7.38;4.40;;;8.40;74.50;;;7.89;56.41;97748.41;5066495;28;20408;-71
2022/04/10 08:23:03;;;;;;;8.30;5.20;;;8.60;78.50;;;7.96;56.07;97749.94;5063661;28;20415;-70
2022/04/10 08:25:29;;;;;;;7.85;4.38;;;8.80;78.10;;;8.11;55.01;97749.50;5061199;28;20391;-70
2022/04/10 08:27:55;;;;;;;9.80;4.90;;;8.90;76.50;;;8.44;55.69;97749.81;5064144;28;20482;-71
2022/04/10 08:30:22;;;;;;;11.68;4.90;;;9.20;78.10;;;8.68;53.47;97753.25;5062137;28;20743;-71
2022/04/10 08:32:48;;;;;;;10.25;4.25;;;9.40;73.80;;;9.08;54.43;97757.84;5065981;28;20400;-70
2022/04/10 08:35:15;;;;;;;9.55;4.53;;;9.70;75.90;;;9.13;52.53;97761.38;5063107;28;20399;-71
2022/04/10 08:37:41;;;;;;;10.68;4.43;;;9.90;72.10;;;8.71;52.13;97771.28;5063799;28;20411;-71
2022/04/10 08:40:09;;;;;;;8.87;4.63;;;9.60;69.50;;;8.54;51.60;97771.16;5063119;28;20954;-71
2022/04/10 08:42:35;;;;;;;7.68;4.03;;;9.30;69.80;;;7.73;51.00;97763.03;5061833;28;20478;-71
2022/04/10 08:45:01;;;;;;;11.02;4.13;;;9.00;66.90;;;8.30;52.79;97766.84;5059865;28;20440;-70
2022/04/10 08:47:30;;;;;;;8.52;4.22;;;9.00;72.10;;;8.65;52.19;97760.81;5068908;28;20489;-70
2022/04/10 08:49:57;;;;;;;9.98;4.10;;;9.30;72.80;;;8.84;53.53;97772.88;5064089;28;20781;-70
2022/04/10 08:52:23;;;;;;;10.38;4.45;;;9.50;75.40;;;9.07;54.13;97767.59;5063652;28;20499;-70
2022/04/10 08:54:49;;;;;;;10.52;4.40;;;9.70;74.00;;;9.20;52.49;97769.16;5062126;28;20471;-71
2022/04/10 08:57:16;;;;;;;8.40;4.47;;;9.90;71.00;;;9.09;51.72;97770.00;5063596;28;20879;-71
2022/04/10 08:59:43;;;;;;;10.07;4.13;;;9.90;70.80;;;8.76;49.82;97776.69;5060103;28;20812;-70
2022/04/10 09:02:10;;;;;;;8.32;4.47;;;9.60;65.50;;;8.91;54.16;97771.75;5058190;28;20926;-70
2022/04/10 09:04:38;;;;;;;10.82;4.70;;;9.60;72.70;;;9.25;52.60;97772.72;5063596;28;20451;-70
2022/04/10 09:07:07;;;;;;;8.38;4.60;;;9.90;71.60;;;9.37;53.21;97766.63;5062261;28;20488;-70
2022/04/10 09:09:35;;;;;;;6.82;4.05;;;10.10;73.30;;;9.56;50.32;97771.50;5058790;28;20397;-69
2022/04/10 09:12:02;;;;;;;9.30;4.50;;;10.20;68.90;;;10.08;53.80;97764.25;5060080;28;20404;-70
2022/04/10 09:14:33;;;;;;;10.20;3.90;;;10.60;74.10;;;9.73;47.38;97763.63;5042598;28;20405;-71
2022/04/10 09:17:13;;;;;;;6.78;3.80;;;10.60;63.80;;;9.44;46.96;97772.56;5058260;28;20393;-70
2022/04/10 09:19:43;;;;;;;8.55;4.30;;;10.40;62.10;;;9.40;49.07;97766.94;5058508;28;20483;-71
2022/04/10 09:22:28;;;;;;;7.28;3.90;;;10.20;65.90;;;9.14;50.86;97768.28;5065167;28;20501;-70
2022/04/10 09:25:11;;;;;;;6.90;3.83;;;10.10;68.60;;;9.00;51.69;97774.84;5060743;28;20463;-71
2022/04/10 09:27:39;;;;;;;9.88;4.57;;;9.80;70.50;;;8.45;52.19;97779.63;5058831;28;20453;-71
2022/04/10 09:30:08;;;;;;;8.60;4.13;;;9.40;68.80;;;8.28;53.79;97776.00;5043161;28;20766;-71
2022/04/10 09:32:43;;;;;;;7.93;4.00;;;9.10;71.90;;;8.42;53.91;97777.47;5060880;28;20460;-71
2022/04/10 09:35:12;;;;;;;10.40;3.70;;;9.20;74.00;;;8.66;49.77;97784.34;5060417;28;20438;-71
2022/04/10 09:37:50;;;;;;;7.85;3.50;;;9.50;66.10;;;8.70;48.69;97769.69;5060734;28;20414;-71
2022/04/10 09:40:28;;;;;;;6.97;3.65;;;9.40;65.10;;;8.44;48.74;97775.38;5057307;28;20459;-71
2022/04/10 09:42:59;;;;;;;8.63;3.97;;;9.30;65.10;;;8.37;50.25;97774.69;5060453;28;20815;-71
2022/04/10 09:45:30;;;;;;;7.93;3.40;;;9.20;67.40;;;7.74;46.03;97783.09;5062019;28;20506;-71
2022/04/10 09:47:57;;;;;;;7.85;4.18;;;8.80;59.00;;;8.06;47.70;97778.38;5063087;28;20530;-71
2022/04/10 09:50:31;;;;;;;12.77;4.10;;;8.80;62.70;;;9.51;45.11;97771.41;5063603;28;20774;-71
2022/04/10 09:52:58;;;;;;;9.30;3.72;;;9.90;59.90;;;9.26;43.73;97768.22;5060856;28;20478;-72
2022/04/10 09:55:36;;;;;;;8.05;3.55;;;10.10;56.70;;;10.07;47.80;97767.16;5066420;28;20429;-71
2022/04/10 09:58:07;;;;;;;7.90;3.13;;;10.60;62.70;;;9.92;42.71;97770.31;5066832;28;20400;-70
2022/04/10 10:00:38;;;;;;;7.75;3.15;;;10.90;57.60;;;8.89;41.14;97765.06;5061169;28;20407;-70
2022/04/10 10:03:05;;;;;;;9.90;3.58;;;10.10;52.80;;;9.47;44.58;97767.59;5081559;28;20511;-70
2022/04/10 10:05:33;;;;;;;8.70;3.20;;;10.20;58.40;;;9.46;46.26;97767.88;5080449;28;20890;-73
2022/04/10 10:08:00;;;;;;;7.35;3.30;;;10.20;60.40;;;10.15;45.27;97768.63;5083660;28;20421;-72
2022/04/10 10:10:30;;;;;;;9.32;3.33;;;10.40;59.40;;;13.82;39.58;97766.53;5080909;28;20404;-72
2022/04/10 10:13:00;;;;;;;4.93;2.70;;;12.90;57.20;;;16.43;33.15;97763.81;5075486;28;20448;-72
2022/04/10 10:15:27;;;;;;;8.87;3.20;;;15.80;49.30;;;18.46;30.91;97759.59;5069645;28;20406;-72
2022/04/10 10:17:53;;;;;;;12.10;2.80;;;17.80;46.50;;;18.85;28.54;97759.25;5070919;28;20748;-73
2022/04/10 10:20:21;;;;;;;7.87;2.70;;;18.70;41.10;;;15.83;32.92;97763.94;5082078;22;20966;-73
2022/04/10 10:22:48;;;;;;;8.50;2.77;;;16.70;41.80;;;13.92;32.70;97766.53;5065933;28;20598;-73
2022/04/10 10:25:24;;;;;;;5.50;2.70;;;15.20;42.80;;;13.31;35.29;97764.72;5061974;28;20407;-73
2022/04/10 10:28:35;;;;;;;8.30;2.93;;;14.20;45.30;;;11.05;39.21;97768.44;5080149;28;20486;-73
2022/04/10 10:31:30;;;;;;;8.23;3.17;;;12.50;46.10;;;10.40;42.87;97774.34;5063691;28;20434;-74
2022/04/10 10:34:02;;;;;;;7.13;3.17;;;11.50;54.70;;;9.80;45.41;97774.84;5062932;28;20396;-74
2022/04/10 10:36:28;;;;;;;11.50;3.90;;;10.80;57.20;;;8.91;44.17;97771.75;5063277;28;20515;-74